Aeroporto :
LOGIN :

Iscrizione | Disclaimer

   EN    FR    IT 

 










Sommario :    VFR   VFR Marginale   IFR   IFR Intensivo   IFR Molto Intensivo
Visibilità : 
Base nubi : 
>= 8 km
>= 3000ft
5 / 8 km
1000 / 3000 ft
1500m / 5 km
500 / 1000 ft
800 / 1500m
200 / 500 ft
< 800m
< 200 ft
Simboli :   Temporali  Nebbia  Neve Forte  Precipitazioni Forti  Vento > 20 kt
SIGMETs :   Varie  Temporali  Ghiacco  Turbolenza  Onda orograficha  Ceneri Vulcaniche






- Altitudine del aeroporto : 1325 ft
- Codice IATA : EBU


LFMH - St-Etienne Boutheon

ULTIMO METAR :
  • 210500Z AUTO 18006KT CAVOK 09/08 Q1016 NOSIG

METARs OBSOLETI :
  • 210430Z AUTO 18003KT CAVOK 10/09 Q1016 NOSIG
  • 210400Z AUTO 00000KT CAVOK 10/08 Q1015 TEMPO 16012KT
  • 210330Z AUTO VRB03KT CAVOK 11/09 Q1015 NOSIG
  • 210300Z AUTO 17005KT CAVOK 11/09 Q1015 NOSIG
  • 210230Z AUTO 16005KT 130V220 9999 FEW056 SCT240 11/09 Q1015

TAF TAF LFMH
Valido dal 21 a 03 ore il 22 a 03 ore UTC


210200Z 2103/2203 16012KT 9999 BKN050
BECMG 2105/2107 VRB02KT
BECMG 2110/2112 BKN020
TEMPO 2112/2203 3000 -RADZ BKN006 OVC012
ATIS : +33 4 77 36 17 51



MetMap, La meteo Aeronautica in un colpo d'occhio ! - Copyright ORBIFLY Dicembre 2007 - Disclaimer

ORBIFLY MET'MAP TEAM :

Programmazione e sviluppo : Alexandra Zaïnal
Concezione e sviluppo : Baudouin d'Aumeries
Co-Programmazione e sviluppo : Marc-Olivier Méhu
Supporto tecnico e logistico : Manuel Goepfert
Aiuto per la traduzione : Arnaldo La Scala

Contatto : metmap@orbifly.com




FONTI E CREDITI :

   NOAA